Time;durP1;ratioP1;P1;durP2;ratioP2;P2;SDS_P1;SDS_P2;PMS_P1;PMS_P2;Temp;Humidity;BMP_temperature;BMP_pressure;BME280_temperature;BME280_humidity;BME280_pressure;Samples;Min_cycle;Max_cycle;Signal;HPM_P1;HPM_P2
2021/03/20 00:01:29;;;;;;;3.33;1.17;;;1.30;84.70;;;;;;5029772;28;20119;-59
2021/03/20 00:03:57;;;;;;;5.38;1.80;;;1.20;85.20;;;;;;5034765;28;20045;-60
2021/03/20 00:06:27;;;;;;;5.00;1.88;;;1.10;85.20;;;;;;5036829;28;20099;-60
2021/03/20 00:08:56;;;;;;;4.35;1.30;;;1.00;85.80;;;;;;5035983;28;20045;-59
2021/03/20 00:11:24;;;;;;;5.60;2.08;;;0.90;86.10;;;;;;5038111;28;20041;-60
2021/03/20 00:13:51;;;;;;;5.43;2.10;;;0.80;86.40;;;;;;5037223;28;20075;-60
2021/03/20 00:16:19;;;;;;;2.70;1.50;;;0.80;86.60;;;;;;5036102;28;20419;-60
2021/03/20 00:18:46;;;;;;;3.22;1.27;;;1.00;86.30;;;;;;5036628;28;20061;-60
2021/03/20 00:21:14;;;;;;;4.22;1.75;;;1.10;85.80;;;;;;5036919;28;20061;-60
2021/03/20 00:23:41;;;;;;;4.22;1.63;;;1.20;85.50;;;;;;5039919;28;20267;-60
2021/03/20 00:26:08;;;;;;;4.80;1.67;;;1.10;85.40;;;;;;5035872;28;20076;-60
2021/03/20 00:28:35;;;;;;;3.65;1.52;;;1.00;85.90;;;;;;5037616;28;20061;-60
2021/03/20 00:31:05;;;;;;;4.60;1.90;;;0.90;86.50;;;;;;5036046;28;20050;-60
2021/03/20 00:33:33;;;;;;;3.47;1.45;;;0.80;86.50;;;;;;5038979;28;20053;-60
2021/03/20 00:36:00;;;;;;;2.60;1.27;;;0.70;86.60;;;;;;5052875;28;20234;-60
2021/03/20 00:38:29;;;;;;;4.10;1.60;;;0.60;86.80;;;;;;5035716;28;20049;-60
2021/03/20 00:40:58;;;;;;;5.63;1.92;;;0.50;87.20;;;;;;5036995;28;20107;-58
2021/03/20 00:43:27;;;;;;;3.67;1.48;;;0.30;87.40;;;;;;5037569;28;20045;-60
2021/03/20 00:45:55;;;;;;;3.03;1.35;;;0.30;87.80;;;;;;5036265;28;20042;-59
2021/03/20 00:48:26;;;;;;;3.08;1.30;;;0.30;88.20;;;;;;5035199;28;20337;-60
2021/03/20 00:50:54;;;;;;;7.25;2.13;;;0.30;88.30;;;;;;5049953;28;20068;-60
2021/03/20 00:53:23;;;;;;;3.90;1.55;;;0.50;87.50;;;;;;5049358;28;20056;-59
2021/03/20 00:55:52;;;;;;;3.28;1.52;;;0.60;87.10;;;;;;5030477;28;20163;-58
2021/03/20 00:58:24;;;;;;;5.18;2.10;;;0.60;86.80;;;;;;5049336;28;20336;-60
2021/03/20 01:00:53;;;;;;;2.05;1.20;;;0.50;87.00;;;;;;5030928;28;20064;-61
2021/03/20 01:03:20;;;;;;;2.33;1.23;;;0.50;87.50;;;;;;5036319;28;20553;-60
2021/03/20 01:05:48;;;;;;;2.53;1.23;;;0.40;87.60;;;;;;5038542;28;20080;-60
2021/03/20 01:08:16;;;;;;;5.82;2.03;;;0.40;87.20;;;;;;5035745;28;20253;-60
2021/03/20 01:10:44;;;;;;;2.33;1.10;;;0.40;87.40;;;;;;5037657;28;20095;-60
2021/03/20 01:13:11;;;;;;;3.25;1.63;;;0.50;87.50;;;;;;5033682;28;20305;-60
2021/03/20 01:15:38;;;;;;;3.20;1.38;;;0.60;87.40;;;;;;5038261;28;20053;-60
2021/03/20 01:18:05;;;;;;;3.92;1.50;;;0.70;86.90;;;;;;5036093;28;20057;-59
2021/03/20 01:20:33;;;;;;;2.95;1.38;;;0.80;85.90;;;;;;5035192;28;20049;-61
2021/03/20 01:23:00;;;;;;;2.78;1.25;;;0.90;85.60;;;;;;5032657;28;20053;-60
2021/03/20 01:25:30;;;;;;;3.15;1.27;;;0.90;85.60;;;;;;5029329;28;20061;-60
2021/03/20 01:28:01;;;;;;;2.88;1.23;;;0.90;85.50;;;;;;5038380;28;20041;-59
2021/03/20 01:30:32;;;;;;;2.88;1.10;;;0.80;85.10;;;;;;5039556;28;20082;-60
2021/03/20 01:33:00;;;;;;;6.05;1.63;;;0.70;85.90;;;;;;5031887;28;20049;-59
2021/03/20 01:35:33;;;;;;;5.55;1.15;;;0.60;85.70;;;;;;5036918;28;20073;-60
2021/03/20 01:38:06;;;;;;;2.53;1.27;;;0.50;85.50;;;;;;5034613;28;20109;-60
2021/03/20 01:40:37;;;;;;;4.82;1.00;;;0.40;85.30;;;;;;5035809;28;20068;-59
2021/03/20 01:43:09;;;;;;;1.85;1.15;;;0.50;84.70;;;;;;5038092;28;20049;-58
2021/03/20 01:45:39;;;;;;;2.33;1.15;;;0.50;83.80;;;;;;5042207;28;20068;-59
2021/03/20 01:48:10;;;;;;;2.58;1.17;;;0.60;83.30;;;;;;5056885;28;20117;-60
2021/03/20 01:50:40;;;;;;;3.60;0.77;;;0.60;81.80;;;;;;5041798;28;20068;-60
2021/03/20 01:53:26;;;;;;;2.67;0.73;;;0.60;82.00;;;;;;5039711;28;20049;-60
2021/03/20 01:55:54;;;;;;;2.22;0.73;;;0.60;80.20;;;;;;5037830;28;20064;-60
2021/03/20 01:58:22;;;;;;;1.83;0.80;;;0.50;79.70;;;;;;5038125;28;20053;-60
2021/03/20 02:00:51;;;;;;;1.65;0.50;;;0.40;78.60;;;;;;5031942;28;20049;-60
2021/03/20 02:03:21;;;;;;;1.20;0.75;;;0.30;78.10;;;;;;5040050;28;20380;-59
2021/03/20 02:05:48;;;;;;;1.92;0.45;;;0.20;77.40;;;;;;5041570;28;20135;-60
2021/03/20 02:08:18;;;;;;;1.40;0.32;;;0.10;76.50;;;;;;5039568;28;20041;-60
2021/03/20 02:10:47;;;;;;;0.88;0.50;;;0.00;75.90;;;;;;5040336;28;20049;-59
2021/03/20 02:13:24;;;;;;;2.38;0.70;;;0.00;75.50;;;;;;5036047;28;20221;-59
2021/03/20 02:15:56;;;;;;;2.00;0.32;;;0.00;75.00;;;;;;5032666;28;20295;-59
2021/03/20 02:18:35;;;;;;;3.60;0.55;;;-3276.70;75.90;;;;;;5032234;28;20757;-60
2021/03/20 02:21:14;;;;;;;0.82;0.40;;;-3276.70;74.80;;;;;;5036924;28;20053;-59
2021/03/20 02:24:18;;;;;;;3.85;0.60;;;-3276.60;74.80;;;;;;5033532;28;20057;-60
2021/03/20 02:27:16;;;;;;;1.88;0.25;;;-3276.60;74.70;;;;;;5032796;28;20523;-59
2021/03/20 02:30:07;;;;;;;2.60;0.80;;;-3276.50;75.40;;;;;;5030688;28;20776;-58
2021/03/20 02:33:05;;;;;;;2.10;0.63;;;-3276.30;75.60;;;;;;5035521;28;20273;-59
2021/03/20 02:35:38;;;;;;;0.70;0.43;;;-3276.10;76.60;;;;;;5033935;28;20313;-60
2021/03/20 02:38:13;;;;;;;2.63;0.82;;;-3275.90;77.60;;;;;;5030909;28;20113;-60
2021/03/20 02:40:50;;;;;;;0.98;0.45;;;-3275.90;78.10;;;;;;5034075;28;20080;-60
2021/03/20 02:43:26;;;;;;;3.95;1.35;;;-3275.80;78.50;;;;;;5036568;28;20045;-59
2021/03/20 02:46:03;;;;;;;4.10;0.93;;;-3275.70;79.30;;;;;;5036699;28;20053;-60
2021/03/20 02:48:43;;;;;;;0.30;0.30;;;-3275.60;79.30;;;;;;5038975;28;20340;-60
2021/03/20 02:51:17;;;;;;;1.38;0.90;;;-3275.60;78.80;;;;;;5037638;28;20299;-59
2021/03/20 02:53:49;;;;;;;2.20;1.02;;;-3275.50;78.20;;;;;;5039080;28;20045;-58
2021/03/20 02:56:21;;;;;;;0.63;0.30;;;-3275.50;79.40;;;;;;5042066;28;20052;-58
2021/03/20 02:58:53;;;;;;;0.65;0.40;;;-3275.40;78.30;;;;;;5042211;28;20049;-59
2021/03/20 03:01:24;;;;;;;2.15;0.40;;;-3275.40;77.80;;;;;;5037799;28;20390;-59
2021/03/20 03:03:55;;;;;;;2.22;0.90;;;-3275.40;77.20;;;;;;5041591;28;20053;-60
2021/03/20 03:06:30;;;;;;;1.38;0.45;;;-3275.30;78.30;;;;;;5041605;28;21059;-59
2021/03/20 03:09:03;;;;;;;0.98;0.55;;;-3275.30;77.30;;;;;;5040388;28;20068;-60
2021/03/20 03:11:45;;;;;;;0.60;0.30;;;-3275.30;76.20;;;;;;5041966;28;20045;-59
2021/03/20 03:14:16;;;;;;;1.05;0.30;;;-3275.30;75.60;;;;;;5038463;28;20073;-58
2021/03/20 03:16:45;;;;;;;;;;;-3275.30;76.40;;;;;;5037194;28;20061;-60
2021/03/20 03:19:20;;;;;;;2.08;0.50;;;-3275.20;76.90;;;;;;5034546;28;19928;-59
2021/03/20 03:21:51;;;;;;;2.30;0.65;;;-3275.10;77.80;;;;;;5036167;28;20052;-59
2021/03/20 03:24:21;;;;;;;2.35;0.70;;;-3275.10;77.60;;;;;;5056428;28;20303;-59
2021/03/20 03:26:54;;;;;;;1.85;0.95;;;-3275.10;77.70;;;;;;5040631;28;20053;-60
2021/03/20 03:29:25;;;;;;;0.28;0.20;;;-3275.10;78.20;;;;;;5036934;28;20351;-59
2021/03/20 03:31:54;;;;;;;;;;;-3275.00;77.90;;;;;;5038792;28;20049;-60
2021/03/20 03:34:26;;;;;;;0.75;0.45;;;-3275.00;78.50;;;;;;5037574;28;20459;-60
2021/03/20 03:37:02;;;;;;;1.13;0.35;;;-3275.00;79.00;;;;;;5038358;28;20241;-60
2021/03/20 03:39:37;;;;;;;0.30;0.25;;;-3275.00;78.30;;;;;;5039906;28;20045;-60
2021/03/20 03:42:05;;;;;;;1.95;0.43;;;-3275.00;78.80;;;;;;5037132;28;20041;-60
2021/03/20 03:44:32;;;;;;;1.52;0.65;;;-3274.90;79.30;;;;;;5040312;28;20075;-60
2021/03/20 03:47:01;;;;;;;1.08;0.52;;;-3274.90;79.40;;;;;;5039126;28;20060;-59
2021/03/20 03:49:29;;;;;;;1.17;0.38;;;-3274.80;78.90;;;;;;5043149;28;20053;-59
2021/03/20 03:51:56;;;;;;;2.75;0.43;;;-3274.80;79.30;;;;;;5039012;28;20041;-59
2021/03/20 03:54:23;;;;;;;0.98;0.40;;;-3274.70;79.80;;;;;;5039590;28;20075;-59
2021/03/20 03:57:28;;;;;;;4.40;0.25;;;-3274.70;80.80;;;;;;5040082;28;20442;-59
2021/03/20 04:00:07;;;;;;;0.93;0.35;;;-3274.70;80.20;;;;;;4997186;28;20049;-60
2021/03/20 04:02:52;;;;;;;0.63;0.32;;;-3274.80;77.60;;;;;;5037605;28;20248;-58
2021/03/20 04:05:25;;;;;;;2.58;0.43;;;-3274.90;77.70;;;;;;5038799;28;20371;-58
2021/03/20 04:08:03;;;;;;;1.70;0.43;;;-3274.80;77.60;;;;;;5034206;28;20347;-58
2021/03/20 04:10:37;;;;;;;0.10;0.10;;;-3274.90;76.30;;;;;;5039460;28;20060;-60
2021/03/20 04:13:12;;;;;;;1.17;0.40;;;-3274.90;76.50;;;;;;5041383;28;20091;-60
2021/03/20 04:15:55;;;;;;;0.68;0.40;;;-3275.00;76.00;;;;;;5040626;28;20045;-59
2021/03/20 04:18:34;;;;;;;1.02;0.32;;;-3275.10;75.90;;;;;;5039191;28;20426;-59
2021/03/20 04:21:11;;;;;;;1.50;0.52;;;-3275.10;74.50;;;;;;5039429;28;20052;-60
2021/03/20 04:23:44;;;;;;;0.80;0.30;;;-3275.20;73.90;;;;;;5039037;28;20053;-59
2021/03/20 04:26:19;;;;;;;1.08;0.85;;;-3275.20;74.30;;;;;;5033224;28;20049;-60
2021/03/20 04:28:52;;;;;;;1.70;0.55;;;-3275.10;74.40;;;;;;5034681;28;20057;-60
2021/03/20 04:31:25;;;;;;;4.45;1.23;;;-3275.00;75.00;;;;;;5036511;28;20859;-60
2021/03/20 04:34:06;;;;;;;0.20;0.20;;;-3275.00;75.30;;;;;;5036478;28;20041;-60
2021/03/20 04:36:39;;;;;;;1.17;0.40;;;-3275.00;76.00;;;;;;5033029;28;20737;-60
2021/03/20 04:39:08;;;;;;;0.65;0.20;;;-3275.10;76.30;;;;;;5036560;28;20091;-59
2021/03/20 04:41:37;;;;;;;4.65;0.70;;;-3275.10;76.30;;;;;;5036871;28;20050;-58
2021/03/20 04:44:12;;;;;;;1.42;0.30;;;-3275.10;75.60;;;;;;5036415;28;20045;-60
2021/03/20 04:46:39;;;;;;;2.47;0.25;;;-3275.20;74.30;;;;;;5037107;28;20229;-58
2021/03/20 04:49:15;;;;;;;0.98;0.50;;;-3275.20;74.60;;;;;;5038670;28;20037;-60
2021/03/20 04:51:47;;;;;;;4.80;0.47;;;-3275.10;75.50;;;;;;5036263;28;20420;-60
2021/03/20 04:54:21;;;;;;;0.50;0.20;;;-3275.10;74.70;;;;;;5036337;28;20041;-60
2021/03/20 04:56:53;;;;;;;0.85;0.45;;;-3275.10;73.70;;;;;;5035554;28;20046;-60
2021/03/20 04:59:44;;;;;;;0.63;0.40;;;-3275.10;73.70;;;;;;5035241;28;20720;-60
2021/03/20 05:02:18;;;;;;;0.93;0.30;;;-3275.00;74.80;;;;;;5031089;28;20064;-60
2021/03/20 05:04:48;;;;;;;2.17;0.68;;;-3274.90;75.30;;;;;;5036087;28;20325;-60
2021/03/20 05:07:19;;;;;;;1.95;0.73;;;-3274.90;75.40;;;;;;5037646;28;20045;-59
2021/03/20 05:09:46;;;;;;;1.23;0.43;;;-3274.80;76.80;;;;;;5035429;28;20042;-60
2021/03/20 05:12:18;;;;;;;0.32;0.13;;;-3274.80;75.70;;;;;;5037234;28;20045;-60
2021/03/20 05:14:52;;;;;;;0.65;0.32;;;-3274.90;76.60;;;;;;5040003;28;20095;-60
2021/03/20 05:17:22;;;;;;;0.43;0.22;;;-3274.90;75.60;;;;;;5036023;28;20542;-60
2021/03/20 05:19:49;;;;;;;1.35;0.47;;;-3275.10;75.40;;;;;;5038739;28;20048;-59
2021/03/20 05:22:22;;;;;;;1.15;0.45;;;-3275.20;74.40;;;;;;5035488;28;20053;-60
2021/03/20 05:24:51;;;;;;;1.15;0.65;;;-3275.30;73.80;;;;;;5036434;28;20073;-59
2021/03/20 05:27:21;;;;;;;0.75;0.55;;;-3275.40;73.20;;;;;;5035033;28;20967;-59
2021/03/20 05:29:49;;;;;;;5.60;0.50;;;-3275.50;72.80;;;;;;5033172;28;20328;-60
2021/03/20 05:32:18;;;;;;;2.08;0.52;;;-3275.60;71.70;;;;;;5038005;28;20056;-58
2021/03/20 05:34:45;;;;;;;3.33;0.68;;;-3275.60;71.10;;;;;;5039817;28;20345;-59
2021/03/20 05:37:24;;;;;;;3.72;0.80;;;-3275.60;70.80;;;;;;5039916;28;20103;-59
2021/03/20 05:39:52;;;;;;;0.63;0.50;;;-3275.60;71.10;;;;;;5039790;28;20045;-60
2021/03/20 05:42:37;;;;;;;1.23;0.40;;;-3275.60;71.70;;;;;;5037397;28;20540;-59
2021/03/20 05:45:26;;;;;;;1.80;0.30;;;-3275.60;71.60;;;;;;5036008;28;20037;-59
2021/03/20 05:48:12;;;;;;;1.30;0.70;;;-3275.60;71.40;;;;;;5036369;28;20322;-60
2021/03/20 05:51:06;;;;;;;0.20;0.20;;;-3275.60;71.50;;;;;;5033595;28;20045;-59
2021/03/20 05:54:07;;;;;;;2.72;0.50;;;-3275.60;71.30;;;;;;5037465;28;20211;-59
2021/03/20 05:56:42;;;;;;;0.85;0.25;;;-3275.70;71.40;;;;;;5036776;28;20355;-59
2021/03/20 05:59:29;;;;;;;0.20;0.13;;;-3275.80;70.90;;;;;;5036888;28;20049;-59
2021/03/20 06:02:14;;;;;;;1.10;0.80;;;-3275.90;70.80;;;;;;5033952;28;20045;-59
2021/03/20 06:04:43;;;;;;;1.33;0.20;;;-3275.90;70.90;;;;;;5038013;28;20080;-60
2021/03/20 06:07:46;;;;;;;1.50;0.32;;;-3276.00;70.20;;;;;;5038290;28;20351;-60
2021/03/20 06:10:37;;;;;;;1.23;0.50;;;-3276.10;70.00;;;;;;5036499;28;20104;-59
2021/03/20 06:13:17;;;;;;;0.47;0.28;;;-3276.20;69.30;;;;;;5035554;28;20049;-59
2021/03/20 06:16:06;;;;;;;1.10;0.32;;;-3276.30;69.20;;;;;;5036443;28;20447;-60
2021/03/20 06:19:07;;;;;;;4.22;1.42;;;-3276.20;69.20;;;;;;5034287;28;20506;-59
2021/03/20 06:21:44;;;;;;;0.80;0.30;;;-3276.20;69.10;;;;;;5032471;28;20542;-60
2021/03/20 06:24:45;;;;;;;0.50;0.40;;;-3276.10;68.80;;;;;;5034787;28;20331;-59
2021/03/20 06:27:18;;;;;;;0.55;0.45;;;-3276.00;68.90;;;;;;5034513;28;20060;-61
2021/03/20 06:29:56;;;;;;;4.57;0.82;;;-3275.90;69.60;;;;;;5035533;28;20352;-60
2021/03/20 06:32:27;;;;;;;1.23;0.47;;;-3275.80;69.80;;;;;;5036494;28;20574;-58
2021/03/20 06:35:01;;;;;;;0.77;0.32;;;-3275.70;69.40;;;;;;5037279;28;20194;-59
2021/03/20 06:37:35;;;;;;;0.40;0.22;;;-3275.70;69.30;;;;;;5038708;28;20252;-58
2021/03/20 06:40:14;;;;;;;1.95;0.35;;;-3275.70;69.30;;;;;;5049390;28;20100;-60
2021/03/20 06:42:43;;;;;;;2.13;0.50;;;-3275.60;69.80;;;;;;5049453;28;20115;-60
2021/03/20 06:45:21;;;;;;;1.02;0.68;;;-3275.60;70.00;;;;;;5031855;28;20053;-60
2021/03/20 06:47:50;;;;;;;1.15;0.30;;;-3275.70;70.10;;;;;;5031875;28;20049;-60
2021/03/20 06:50:20;;;;;;;1.25;0.52;;;-3275.70;70.20;;;;;;5031698;28;20555;-59
2021/03/20 06:52:50;;;;;;;;;;;-3275.70;70.40;;;;;;5052439;28;20052;-60
2021/03/20 06:55:24;;;;;;;2.92;0.43;;;-3275.70;69.70;;;;;;5035020;28;19917;-60
2021/03/20 06:57:52;;;;;;;1.70;0.57;;;-3275.70;69.40;;;;;;5035893;28;20060;-59
2021/03/20 07:00:26;;;;;;;1.95;0.88;;;-3275.70;68.50;;;;;;5034351;28;20052;-60
2021/03/20 07:03:17;;;;;;;3.58;1.08;;;-3275.60;69.40;;;;;;5037989;28;20045;-59
2021/03/20 07:05:54;;;;;;;4.60;0.85;;;-3275.60;68.70;;;;;;5055155;28;20045;-60
2021/03/20 07:08:38;;;;;;;2.78;0.80;;;-3275.60;68.50;;;;;;5035619;28;20304;-60
2021/03/20 07:11:19;;;;;;;6.63;1.05;;;-3275.70;68.20;;;;;;5034977;28;20046;-60
2021/03/20 07:13:51;;;;;;;0.63;0.52;;;-3275.70;68.40;;;;;;5034297;28;20116;-59
2021/03/20 07:16:21;;;;;;;1.63;0.40;;;-3275.80;67.90;;;;;;5035251;28;20803;-59
2021/03/20 07:18:49;;;;;;;6.72;0.60;;;-3275.80;68.20;;;;;;5033090;28;20052;-59
2021/03/20 07:21:27;;;;;;;4.70;0.68;;;-3275.90;68.30;;;;;;5035661;28;20049;-60
2021/03/20 07:23:57;;;;;;;0.63;0.35;;;-3275.90;68.20;;;;;;5036502;28;20065;-60
2021/03/20 07:26:26;;;;;;;2.00;0.50;;;-3275.90;67.90;;;;;;5035975;28;20056;-60
2021/03/20 07:28:56;;;;;;;5.00;0.60;;;-3276.10;67.40;;;;;;5051613;28;20280;-59
2021/03/20 07:31:24;;;;;;;0.55;0.50;;;-3276.10;67.50;;;;;;5038051;28;20219;-59
2021/03/20 07:33:54;;;;;;;1.33;0.30;;;-3276.20;67.20;;;;;;5036453;28;22248;-60
2021/03/20 07:36:30;;;;;;;1.08;0.30;;;-3276.30;66.40;;;;;;5033467;28;20045;-60
2021/03/20 07:39:15;;;;;;;4.32;1.88;;;-3276.30;66.60;;;;;;5030464;28;20060;-60
2021/03/20 07:41:53;;;;;;;2.90;0.57;;;-3276.50;66.90;;;;;;5037054;28;20046;-60
2021/03/20 07:44:22;;;;;;;1.17;0.55;;;-3276.60;65.90;;;;;;5038268;28;21250;-59
2021/03/20 07:46:49;;;;;;;1.50;0.80;;;0.00;65.90;;;;;;5038036;28;20277;-60
2021/03/20 07:49:24;;;;;;;1.75;0.57;;;0.10;65.30;;;;;;5039370;28;20061;-60
2021/03/20 07:51:54;;;;;;;7.72;0.63;;;0.20;64.30;;;;;;5041364;28;20087;-60
2021/03/20 07:54:32;;;;;;;1.65;0.60;;;0.50;62.70;;;;;;5039257;28;20768;-60
2021/03/20 07:57:11;;;;;;;0.93;0.45;;;0.70;61.90;;;;;;5040152;28;20325;-60
2021/03/20 07:59:45;;;;;;;1.45;0.68;;;0.90;60.50;;;;;;5036633;28;20209;-59
2021/03/20 08:02:28;;;;;;;2.85;1.30;;;1.10;60.70;;;;;;5032780;28;20610;-60
2021/03/20 08:04:58;;;;;;;5.57;1.00;;;1.30;59.50;;;;;;5037067;28;20061;-59
2021/03/20 08:07:36;;;;;;;3.40;0.65;;;1.60;58.50;;;;;;5037918;28;20053;-60
2021/03/20 08:10:28;;;;;;;1.48;0.30;;;1.90;58.10;;;;;;5032576;28;20359;-60
2021/03/20 08:13:09;;;;;;;1.95;0.57;;;2.10;56.60;;;;;;5039826;28;20464;-60
2021/03/20 08:15:41;;;;;;;6.93;0.75;;;2.40;57.20;;;;;;5038168;28;20052;-59
2021/03/20 08:18:17;;;;;;;0.57;0.30;;;2.30;52.10;;;;;;5037290;28;20049;-60
2021/03/20 08:20:56;;;;;;;2.17;0.75;;;2.40;54.10;;;;;;5040433;28;20054;-60
2021/03/20 08:23:54;;;;;;;1.30;0.50;;;2.40;54.50;;;;;;5039901;28;20997;-60
2021/03/20 08:26:34;;;;;;;1.10;0.40;;;2.40;54.80;;;;;;5037413;28;20363;-60
2021/03/20 08:29:12;;;;;;;3.20;0.67;;;2.30;53.30;;;;;;5036437;28;20352;-60
2021/03/20 08:31:58;;;;;;;1.33;0.68;;;2.20;54.50;;;;;;5036450;28;20661;-60
2021/03/20 08:34:49;;;;;;;0.70;0.28;;;2.40;53.40;;;;;;5033875;28;21034;-60
2021/03/20 08:37:41;;;;;;;2.78;1.15;;;2.50;53.90;;;;;;5037182;28;20053;-59
2021/03/20 08:40:29;;;;;;;2.58;1.48;;;2.40;54.00;;;;;;5035401;28;20140;-59
2021/03/20 08:43:37;;;;;;;2.65;0.60;;;2.50;54.70;;;;;;5034560;28;20052;-60
2021/03/20 08:46:20;;;;;;;10.05;5.78;;;2.60;52.90;;;;;;5009643;28;20057;-59
2021/03/20 08:48:57;;;;;;;13.00;5.18;;;2.70;52.60;;;;;;5039340;28;20348;-59
2021/03/20 08:51:35;;;;;;;24.20;11.25;;;3.00;51.20;;;;;;5036983;28;20516;-61
2021/03/20 08:54:16;;;;;;;20.58;10.60;;;3.20;51.70;;;;;;5040407;28;20131;-60
2021/03/20 08:57:03;;;;;;;7.03;3.75;;;3.30;50.10;;;;;;5039373;28;20329;-60
2021/03/20 08:59:34;;;;;;;16.52;10.60;;;3.40;49.80;;;;;;5039710;28;20575;-59
2021/03/20 09:02:15;;;;;;;8.55;5.47;;;3.20;49.60;;;;;;5035502;28;20064;-60
2021/03/20 09:04:44;;;;;;;14.35;9.35;;;3.30;48.20;;;;;;5039966;28;20041;-59
2021/03/20 09:07:23;;;;;;;11.52;6.72;;;3.20;47.90;;;;;;5036522;28;20053;-60
2021/03/20 09:09:56;;;;;;;20.05;8.52;;;3.20;46.70;;;;;;5036073;28;20049;-60
2021/03/20 09:12:27;;;;;;;19.10;8.02;;;3.20;47.00;;;;;;5034912;28;20516;-60
2021/03/20 09:14:55;;;;;;;13.07;4.95;;;3.20;46.80;;;;;;5036369;28;20043;-59
2021/03/20 09:17:28;;;;;;;8.55;2.85;;;3.20;45.10;;;;;;5038512;28;20091;-59
2021/03/20 09:19:59;;;;;;;6.22;3.15;;;3.30;44.70;;;;;;5038834;28;20355;-60
2021/03/20 09:22:31;;;;;;;9.07;1.67;;;3.40;46.10;;;;;;5040773;28;20592;-60
2021/03/20 09:25:06;;;;;;;2.45;0.57;;;3.50;44.60;;;;;;5037228;28;20049;-60
2021/03/20 09:28:03;;;;;;;16.40;9.45;;;3.70;45.70;;;;;;5039238;28;20049;-60
2021/03/20 09:30:33;;;;;;;5.68;2.50;;;4.20;43.40;;;;;;5037897;28;20138;-60
2021/03/20 09:33:04;;;;;;;2.25;1.23;;;4.50;44.40;;;;;;5037237;28;20057;-59
2021/03/20 09:35:42;;;;;;;1.85;0.90;;;4.70;41.50;;;;;;5053430;28;20057;-59
2021/03/20 09:38:09;;;;;;;7.72;4.15;;;5.00;40.30;;;;;;5037343;28;20049;-59
2021/03/20 09:41:03;;;;;;;3.95;1.92;;;5.50;39.30;;;;;;5038476;28;20068;-59
2021/03/20 09:43:51;;;;;;;13.20;6.35;;;5.70;38.60;;;;;;5040655;28;20461;-59
2021/03/20 09:46:52;;;;;;;2.97;1.73;;;6.10;37.50;;;;;;5053812;28;20340;-60
2021/03/20 09:49:53;;;;;;;3.22;1.02;;;6.90;35.00;;;;;;5037577;28;20548;-60
2021/03/20 09:52:47;;;;;;;3.17;0.85;;;7.80;32.70;;;;;;5037602;28;20420;-60
2021/03/20 09:55:45;;;;;;;0.47;0.28;;;8.50;31.10;;;;;;5038709;28;20064;-60
2021/03/20 09:58:40;;;;;;;4.03;1.48;;;8.30;30.70;;;;;;5011507;28;20061;-59
2021/03/20 10:01:20;;;;;;;4.35;2.35;;;8.90;28.80;;;;;;5019513;28;20033;-59
2021/03/20 10:04:07;;;;;;;2.08;1.00;;;10.00;28.20;;;;;;5034025;28;20080;-60
2021/03/20 10:06:37;;;;;;;4.22;2.17;;;10.70;26.60;;;;;;5030149;28;20599;-60
2021/03/20 10:09:26;;;;;;;10.20;1.67;;;11.10;26.00;;;;;;5034125;28;20099;-60
2021/03/20 10:12:16;;;;;;;7.75;1.60;;;11.90;25.60;;;;;;5034490;28;20084;-60
2021/03/20 10:15:22;;;;;;;7.65;2.13;;;12.80;22.60;;;;;;5037955;28;20068;-59
2021/03/20 10:18:20;;;;;;;8.70;4.78;;;12.80;22.80;;;;;;5026319;28;20929;-59
2021/03/20 10:20:57;;;;;;;7.22;2.83;;;12.90;23.20;;;;;;5035836;28;20388;-60
2021/03/20 10:23:42;;;;;;;6.85;2.95;;;13.40;22.70;;;;;;5036681;28;20424;-60
2021/03/20 10:26:23;;;;;;;8.13;2.47;;;13.60;22.50;;;;;;5035549;28;20068;-60
2021/03/20 10:28:51;;;;;;;;;;;14.00;23.30;;;;;;5035445;28;20037;-60
2021/03/20 10:31:18;;;;;;;3.15;0.80;;;14.80;21.50;;;;;;5035814;28;20522;-60
2021/03/20 10:33:47;;;;;;;2.33;0.60;;;15.00;20.80;;;;;;5035464;28;20053;-60
2021/03/20 10:36:27;;;;;;;4.15;1.70;;;14.90;20.00;;;;;;5036773;28;20045;-60
2021/03/20 10:38:54;;;;;;;3.53;1.48;;;14.50;20.90;;;;;;5034548;28;20045;-61
2021/03/20 10:41:26;;;;;;;4.30;1.58;;;15.00;19.90;;;;;;5038715;28;20057;-60
2021/03/20 10:43:57;;;;;;;5.35;2.15;;;14.90;20.10;;;;;;5034727;28;20053;-60
2021/03/20 10:46:26;;;;;;;3.50;1.30;;;14.00;21.60;;;;;;5038538;28;20259;-60
2021/03/20 10:48:55;;;;;;;1.38;0.40;;;14.30;21.90;;;;;;5038744;28;20053;-60
2021/03/20 10:51:24;;;;;;;13.03;4.17;;;14.60;21.40;;;;;;5037495;28;20133;-60
2021/03/20 10:53:54;;;;;;;9.73;2.95;;;15.20;19.40;;;;;;5037662;28;20053;-60
2021/03/20 10:56:32;;;;;;;24.73;9.57;;;14.80;20.20;;;;;;5036444;28;21070;-60
2021/03/20 10:59:00;;;;;;;9.00;3.40;;;14.80;19.60;;;;;;5037852;28;20045;-60
2021/03/20 11:01:33;;;;;;;10.27;3.00;;;15.10;19.90;;;;;;5034280;28;20057;-60
2021/03/20 11:04:00;;;;;;;4.90;2.25;;;14.40;20.50;;;;;;5034150;28;20121;-60
2021/03/20 11:06:34;;;;;;;7.30;1.55;;;14.70;20.10;;;;;;5036465;28;20053;-60
2021/03/20 11:09:08;;;;;;;5.57;1.42;;;15.10;19.10;;;;;;5036653;28;20057;-59
2021/03/20 11:11:40;;;;;;;7.40;2.08;;;14.40;20.10;;;;;;5037825;28;20061;-60
2021/03/20 11:14:10;;;;;;;2.72;0.82;;;14.40;20.40;;;;;;5037924;28;20337;-60
2021/03/20 11:16:44;;;;;;;1.65;0.63;;;14.80;19.90;;;;;;5037751;28;20057;-60
2021/03/20 11:19:29;;;;;;;4.28;0.70;;;15.10;20.40;;;;;;5040739;28;20045;-60
2021/03/20 11:22:02;;;;;;;1.85;0.68;;;16.40;18.10;;;;;;5040726;28;20139;-60
2021/03/20 11:24:34;;;;;;;4.88;1.67;;;16.90;16.70;;;;;;5041289;28;20061;-60
2021/03/20 11:27:20;;;;;;;14.07;4.93;;;18.60;16.20;;;;;;5043534;28;20100;-60
2021/03/20 11:29:50;;;;;;;94.72;38.30;;;19.50;14.90;;;;;;5038548;28;20087;-60
2021/03/20 11:32:24;;;;;;;6.90;2.70;;;19.70;15.30;;;;;;5040298;28;20057;-59
2021/03/20 11:35:01;;;;;;;2.10;0.50;;;18.20;16.40;;;;;;5043177;28;20049;-60
2021/03/20 11:37:30;;;;;;;2.67;0.35;;;17.20;16.50;;;;;;5037360;28;20362;-60
2021/03/20 11:39:59;;;;;;;5.93;1.10;;;16.20;17.60;;;;;;5036553;28;20046;-60
2021/03/20 11:42:35;;;;;;;4.05;1.30;;;17.70;17.60;;;;;;5037766;28;20248;-60
2021/03/20 11:45:08;;;;;;;2.50;0.85;;;18.50;15.50;;;;;;5038575;28;20053;-60
2021/03/20 11:47:38;;;;;;;2.05;0.50;;;17.50;15.70;;;;;;5036606;28;20304;-60
2021/03/20 11:50:15;;;;;;;6.15;2.08;;;18.40;14.80;;;;;;5039669;28;20332;-60
2021/03/20 11:52:50;;;;;;;6.43;2.53;;;19.20;14.80;;;;;;5036960;28;20265;-61
2021/03/20 11:55:21;;;;;;;3.60;1.33;;;19.10;14.10;;;;;;5037306;28;20049;-60
2021/03/20 11:57:50;;;;;;;4.05;0.93;;;15.60;16.70;;;;;;5037262;28;20057;-61
2021/03/20 12:00:37;;;;;;;2.87;0.90;;;14.10;18.00;;;;;;5036615;28;20410;-59
2021/03/20 12:03:10;;;;;;;1.05;0.30;;;14.80;18.30;;;;;;5035340;28;20057;-60
2021/03/20 12:05:38;;;;;;;3.92;0.38;;;14.60;19.00;;;;;;5037390;28;20394;-60
2021/03/20 12:08:27;;;;;;;3.63;1.52;;;16.00;18.00;;;;;;5034263;28;20064;-60
2021/03/20 12:11:02;;;;;;;2.25;0.77;;;18.60;15.80;;;;;;5037039;28;20084;-60
2021/03/20 12:13:47;;;;;;;2.97;0.70;;;20.30;15.20;;;;;;5037162;28;20061;-60
2021/03/20 12:16:38;;;;;;;1.05;0.50;;;19.00;15.60;;;;;;5037616;28;20049;-60
2021/03/20 12:19:06;;;;;;;;;;;17.70;16.10;;;;;;5040012;28;20057;-60
2021/03/20 12:21:34;;;;;;;7.15;2.15;;;16.70;17.20;;;;;;5043140;28;19976;-60
2021/03/20 12:24:01;;;;;;;12.27;2.70;;;16.90;17.60;;;;;;5042679;28;20045;-60
2021/03/20 12:26:32;;;;;;;3.58;1.20;;;15.90;18.30;;;;;;5044769;28;20049;-59
2021/03/20 12:29:20;;;;;;;6.10;1.77;;;15.30;18.20;;;;;;5044170;28;20245;-59
2021/03/20 12:31:47;;;;;;;3.13;0.93;;;15.50;18.40;;;;;;5042860;28;20099;-60
2021/03/20 12:34:28;;;;;;;3.67;1.13;;;14.90;18.70;;;;;;5043578;28;20041;-59
2021/03/20 12:37:16;;;;;;;1.67;0.60;;;14.30;19.60;;;;;;5041302;28;20065;-59
2021/03/20 12:39:43;;;;;;;4.13;1.15;;;12.90;21.00;;;;;;5040944;28;20061;-60
2021/03/20 12:42:11;;;;;;;3.83;1.58;;;13.70;21.00;;;;;;5037398;28;20072;-60
2021/03/20 12:44:44;;;;;;;2.75;0.65;;;15.10;20.90;;;;;;5036851;28;20056;-59
2021/03/20 12:47:15;;;;;;;0.88;0.40;;;15.60;19.10;;;;;;5040344;28;20056;-59
2021/03/20 12:49:42;;;;;;;12.95;3.13;;;14.90;19.60;;;;;;5038409;28;20045;-59
2021/03/20 12:52:14;;;;;;;6.30;1.95;;;15.40;19.70;;;;;;5044091;28;20049;-59
2021/03/20 12:54:44;;;;;;;20.27;6.28;;;15.90;19.00;;;;;;5044452;28;20057;-60
2021/03/20 12:57:19;;;;;;;2.60;0.90;;;16.00;19.40;;;;;;5042700;28;20064;-60
2021/03/20 12:59:47;;;;;;;1.85;0.70;;;16.00;19.60;;;;;;5042272;28;20317;-60
2021/03/20 13:02:15;;;;;;;2.13;0.65;;;17.50;17.40;;;;;;5040819;28;20366;-60
2021/03/20 13:04:43;;;;;;;2.53;0.85;;;17.80;17.40;;;;;;5043760;28;20049;-60
2021/03/20 13:07:11;;;;;;;3.08;1.00;;;17.70;17.90;;;;;;5041819;28;20112;-60
2021/03/20 13:09:38;;;;;;;2.35;0.75;;;17.90;17.70;;;;;;5041555;28;20083;-60
2021/03/20 13:12:07;;;;;;;5.68;1.48;;;17.50;17.80;;;;;;5043193;28;20049;-60
2021/03/20 13:14:35;;;;;;;2.67;0.73;;;16.70;18.50;;;;;;5059218;28;20060;-60
2021/03/20 13:17:04;;;;;;;2.30;0.60;;;14.70;19.40;;;;;;5042181;28;20046;-60
2021/03/20 13:19:31;;;;;;;1.65;0.82;;;15.10;20.30;;;;;;5039480;28;20049;-60